createdAt,value
2022-12-17T00:01:05.138Z,3.27
2022-12-17T00:03:50.816Z,2.90
2022-12-17T00:06:36.228Z,2.00
2022-12-17T00:09:21.481Z,2.49
2022-12-17T00:12:06.765Z,2.55
2022-12-17T00:14:53.376Z,2.75
2022-12-17T00:17:38.784Z,2.72
2022-12-17T00:20:24.711Z,2.59
2022-12-17T00:23:17.232Z,2.62
2022-12-17T00:26:02.487Z,2.48
2022-12-17T00:28:47.842Z,2.51
2022-12-17T00:31:34.420Z,2.75
2022-12-17T00:34:19.784Z,2.81
2022-12-17T00:37:05.167Z,2.73
2022-12-17T00:39:53.536Z,2.49
2022-12-17T00:42:44.027Z,2.50
2022-12-17T00:45:29.454Z,2.73
2022-12-17T00:48:16.308Z,2.42
2022-12-17T00:51:01.556Z,2.48
2022-12-17T00:53:47.018Z,2.81
2022-12-17T00:56:32.404Z,2.65
2022-12-17T00:59:29.213Z,2.72
2022-12-17T01:02:14.630Z,3.12
2022-12-17T01:05:01.560Z,2.63
2022-12-17T01:07:46.993Z,2.49
2022-12-17T01:10:32.131Z,2.18
2022-12-17T01:13:17.579Z,2.54
2022-12-17T01:16:02.882Z,2.51
2022-12-17T01:18:48.175Z,2.89
2022-12-17T01:21:34.936Z,2.61
2022-12-17T01:24:20.308Z,2.54
2022-12-17T01:27:07.931Z,2.59
2022-12-17T01:29:53.298Z,2.34
2022-12-17T01:32:41.138Z,2.58
2022-12-17T01:35:27.125Z,2.45
2022-12-17T01:38:13.865Z,2.41
2022-12-17T01:40:59.273Z,2.66
2022-12-17T01:43:51.679Z,2.35
2022-12-17T01:46:37.011Z,2.31
2022-12-17T01:49:22.251Z,2.73
2022-12-17T01:52:10.721Z,2.83
2022-12-17T01:54:58.533Z,2.47
2022-12-17T01:57:44.328Z,2.45
2022-12-17T02:00:31.677Z,2.27
2022-12-17T02:03:17.640Z,2.15
2022-12-17T02:06:09.016Z,1.85
2022-12-17T02:08:59.448Z,2.27
2022-12-17T02:11:53.704Z,2.57
2022-12-17T02:14:41.779Z,2.47
2022-12-17T02:17:29.571Z,2.16
2022-12-17T02:20:21.304Z,1.59
2022-12-17T02:23:18.529Z,2.12
2022-12-17T02:26:22.874Z,1.71
2022-12-17T02:29:10.197Z,1.77
2022-12-17T02:32:00.151Z,1.81
2022-12-17T02:34:45.679Z,1.95
2022-12-17T02:37:31.041Z,1.88
2022-12-17T02:40:16.996Z,2.00
2022-12-17T02:43:02.688Z,2.15
2022-12-17T02:45:49.347Z,1.77
2022-12-17T02:48:35.058Z,1.85
2022-12-17T02:51:20.395Z,2.22
2022-12-17T02:54:10.188Z,1.86
2022-12-17T02:56:55.880Z,2.11
2022-12-17T02:59:41.105Z,2.18
2022-12-17T03:02:27.735Z,1.95
2022-12-17T03:05:42.788Z,1.66
2022-12-17T03:08:26.415Z,2.08
2022-12-17T03:11:11.772Z,1.76
2022-12-17T03:13:57.084Z,1.24
2022-12-17T03:16:42.460Z,1.46
2022-12-17T03:19:29.420Z,1.97
2022-12-17T03:22:14.887Z,1.82
2022-12-17T03:25:00.310Z,1.96
2022-12-17T03:27:45.507Z,2.03
2022-12-17T03:30:35.502Z,1.69
2022-12-17T03:33:21.119Z,1.56
2022-12-17T03:36:06.855Z,1.55
2022-12-17T03:38:52.317Z,2.07
2022-12-17T03:41:37.587Z,2.20
2022-12-17T03:44:22.964Z,2.07
2022-12-17T03:47:08.276Z,2.00
2022-12-17T03:49:53.592Z,1.83
2022-12-17T03:52:40.432Z,1.04
2022-12-17T03:55:26.278Z,1.83
2022-12-17T03:58:11.561Z,1.71
2022-12-17T04:00:57.077Z,1.51
2022-12-17T04:03:47.685Z,1.39
2022-12-17T04:06:33.088Z,2.09
2022-12-17T04:09:19.652Z,1.99
2022-12-17T04:12:04.944Z,2.11
2022-12-17T04:14:50.376Z,2.24
2022-12-17T04:17:47.108Z,2.36
2022-12-17T04:20:32.548Z,2.09
2022-12-17T04:23:17.967Z,2.18
2022-12-17T04:26:04.593Z,1.96
2022-12-17T04:28:50.249Z,1.65
2022-12-17T04:31:35.377Z,1.77
2022-12-17T04:34:20.985Z,1.19
2022-12-17T04:37:06.376Z,0.94
2022-12-17T04:39:51.792Z,1.58
2022-12-17T04:42:38.931Z,1.48
2022-12-17T04:45:24.853Z,1.61
2022-12-17T04:48:10.240Z,1.48
2022-12-17T04:50:55.693Z,1.14
2022-12-17T04:53:40.969Z,0.82
2022-12-17T04:56:26.365Z,1.17
2022-12-17T04:59:13.011Z,0.69
2022-12-17T05:02:00.802Z,1.40
2022-12-17T05:04:46.390Z,0.89
2022-12-17T05:07:31.700Z,0.95
2022-12-17T05:10:16.928Z,0.80
2022-12-17T05:13:02.152Z,0.76
2022-12-17T05:15:53.160Z,1.02
2022-12-17T05:18:38.606Z,1.35
2022-12-17T05:21:35.489Z,0.61
2022-12-17T05:24:20.671Z,1.14
2022-12-17T05:27:06.403Z,0.51
2022-12-17T05:29:51.921Z,1.34
2022-12-17T05:32:38.821Z,1.40
2022-12-17T05:35:24.624Z,1.22
2022-12-17T05:38:09.697Z,1.47
2022-12-17T05:40:55.000Z,1.20
2022-12-17T05:43:40.349Z,1.39
2022-12-17T05:46:25.931Z,1.38
2022-12-17T05:49:12.505Z,1.41
2022-12-17T05:51:57.972Z,1.41
2022-12-17T05:54:43.365Z,1.37
2022-12-17T05:57:28.523Z,1.42
2022-12-17T06:00:14.130Z,1.27
2022-12-17T06:02:59.516Z,0.66
2022-12-17T06:05:46.001Z,1.39
2022-12-17T06:08:31.269Z,1.69
2022-12-17T06:11:17.537Z,1.12
2022-12-17T06:14:03.262Z,1.08
2022-12-17T06:16:48.548Z,0.63
2022-12-17T06:19:33.905Z,0.87
2022-12-17T06:22:20.876Z,1.47
2022-12-17T06:25:06.116Z,0.64
2022-12-17T06:27:51.643Z,0.71
2022-12-17T06:30:36.640Z,0.84
2022-12-17T06:33:23.600Z,0.89
2022-12-17T06:36:12.624Z,1.09
2022-12-17T06:39:01.348Z,1.15
2022-12-17T06:41:46.845Z,1.11
2022-12-17T06:44:32.235Z,1.03
2022-12-17T06:47:17.582Z,1.02
2022-12-17T06:50:02.897Z,0.75
2022-12-17T06:52:48.241Z,0.21
2022-12-17T06:55:34.877Z,0.37
2022-12-17T06:58:20.317Z,0.27
2022-12-17T07:01:01.983Z,0.86
2022-12-17T07:03:47.557Z,1.04
2022-12-17T07:06:32.893Z,0.68
2022-12-17T07:09:18.309Z,0.93
2022-12-17T07:12:05.222Z,0.81
2022-12-17T07:14:50.384Z,1.01
2022-12-17T07:17:35.962Z,0.88
2022-12-17T07:20:21.296Z,0.89
2022-12-17T07:23:06.609Z,0.58
2022-12-17T07:25:51.952Z,0.37
2022-12-17T07:28:38.765Z,0.80
2022-12-17T07:31:24.258Z,0.71
2022-12-17T07:34:09.446Z,0.95
2022-12-17T07:36:55.232Z,0.71
2022-12-17T07:39:40.642Z,0.99
2022-12-17T07:42:25.885Z,0.44
2022-12-17T07:45:12.645Z,0.68
2022-12-17T07:47:57.969Z,0.71
2022-12-17T07:50:43.400Z,0.15
2022-12-17T07:53:28.773Z,0.59
2022-12-17T07:56:14.023Z,1.00
2022-12-17T07:58:59.524Z,0.97
2022-12-17T08:01:46.405Z,0.75
2022-12-17T08:04:31.516Z,1.17
2022-12-17T08:07:16.819Z,0.79
2022-12-17T08:10:02.184Z,0.48
2022-12-17T08:12:47.573Z,-0.08
2022-12-17T08:15:32.959Z,0.02
2022-12-17T08:18:25.907Z,0.95
2022-12-17T08:21:12.186Z,1.08
2022-12-17T08:23:57.629Z,0.95
2022-12-17T08:26:47.558Z,0.70
2022-12-17T08:29:33.478Z,0.89
2022-12-17T08:32:18.828Z,1.07
2022-12-17T08:35:05.173Z,1.06
2022-12-17T08:37:50.855Z,0.99
2022-12-17T08:40:36.321Z,0.80
2022-12-17T08:43:21.676Z,0.66
2022-12-17T08:46:07.128Z,1.16
2022-12-17T08:48:52.136Z,1.35
2022-12-17T08:51:39.302Z,1.79
2022-12-17T08:54:24.725Z,1.50
2022-12-17T08:57:10.045Z,1.20
2022-12-17T08:59:55.736Z,1.38
2022-12-17T09:02:41.118Z,1.81
2022-12-17T09:05:27.443Z,1.85
2022-12-17T09:08:19.172Z,1.10
2022-12-17T09:11:04.522Z,1.18
2022-12-17T09:13:49.905Z,1.74
2022-12-17T09:16:35.408Z,1.59
2022-12-17T09:19:20.479Z,1.35
2022-12-17T09:22:06.017Z,1.52
2022-12-17T09:24:52.396Z,1.60
2022-12-17T09:27:37.754Z,0.76
2022-12-17T09:30:23.664Z,1.23
2022-12-17T09:33:08.996Z,1.59
2022-12-17T09:35:57.868Z,1.25
2022-12-17T09:38:43.342Z,0.87
2022-12-17T09:41:39.384Z,1.15
2022-12-17T09:44:27.250Z,1.47
2022-12-17T09:47:18.245Z,1.53
2022-12-17T09:50:03.618Z,1.43
2022-12-17T09:52:52.873Z,2.05
2022-12-17T09:55:54.853Z,1.95
2022-12-17T09:58:42.880Z,1.97
2022-12-17T10:01:34.579Z,2.06
2022-12-17T10:04:20.460Z,1.83
2022-12-17T10:07:05.892Z,1.85
2022-12-17T10:09:53.178Z,2.28
2022-12-17T10:12:39.955Z,2.62
2022-12-17T10:15:32.128Z,2.99
2022-12-17T10:18:17.861Z,2.56
2022-12-17T10:21:07.345Z,2.85
2022-12-17T10:23:53.118Z,3.15
2022-12-17T10:26:40.022Z,3.19
2022-12-17T10:29:29.409Z,2.82
2022-12-17T10:32:17.904Z,2.93
2022-12-17T10:35:05.673Z,2.48
2022-12-17T10:37:53.052Z,2.20
2022-12-17T10:40:43.052Z,2.63
2022-12-17T10:43:48.382Z,2.33
2022-12-17T10:46:52.319Z,3.04
2022-12-17T10:49:40.318Z,2.33
2022-12-17T10:52:45.836Z,2.67
2022-12-17T10:55:39.245Z,2.89
2022-12-17T10:58:24.762Z,3.11
2022-12-17T11:01:18.469Z,2.90
2022-12-17T11:04:08.240Z,2.90
2022-12-17T11:06:57.294Z,2.70
2022-12-17T11:10:03.741Z,2.16
2022-12-17T11:12:53.836Z,2.90
2022-12-17T11:15:41.768Z,2.40
2022-12-17T11:18:35.785Z,2.49
2022-12-17T11:21:25.987Z,2.89
2022-12-17T11:24:17.701Z,3.17
2022-12-17T11:27:08.900Z,3.14
2022-12-17T11:29:54.184Z,2.89
2022-12-17T11:33:12.444Z,2.62
2022-12-17T11:36:06.231Z,2.51
2022-12-17T11:38:57.127Z,2.98
2022-12-17T11:41:55.226Z,3.13
2022-12-17T11:44:53.693Z,2.77
2022-12-17T11:47:45.921Z,2.11
2022-12-17T11:50:36.074Z,2.63
2022-12-17T11:53:28.407Z,2.62
2022-12-17T11:56:18.403Z,2.54
2022-12-17T11:59:09.726Z,2.52
2022-12-17T12:01:59.467Z,2.34
2022-12-17T12:04:57.269Z,2.21
2022-12-17T12:07:49.099Z,1.81
2022-12-17T12:10:39.420Z,1.88
2022-12-17T12:13:33.407Z,2.04
2022-12-17T12:16:43.987Z,2.16
2022-12-17T12:19:37.199Z,2.75
2022-12-17T12:22:30.944Z,2.90
2022-12-17T12:25:41.219Z,2.41
2022-12-17T12:28:33.862Z,2.78
2022-12-17T12:31:26.977Z,2.65
2022-12-17T12:34:16.039Z,2.61
2022-12-17T12:37:02.406Z,2.06
2022-12-17T12:40:02.280Z,2.28
2022-12-17T12:42:54.759Z,2.30
2022-12-17T12:45:53.595Z,1.57
2022-12-17T12:48:49.621Z,2.06
2022-12-17T12:51:38.494Z,2.14
2022-12-17T12:54:40.891Z,2.26
2022-12-17T12:57:47.975Z,1.86
2022-12-17T13:00:42.011Z,2.33
2022-12-17T13:03:31.943Z,1.75
2022-12-17T13:06:02.782Z,1.72
2022-12-17T13:08:30.691Z,1.87
2022-12-17T13:10:58.448Z,2.29
2022-12-17T13:13:31.494Z,2.26
2022-12-17T13:16:03.447Z,2.17
2022-12-17T13:18:34.617Z,1.95
2022-12-17T13:21:05.835Z,1.67
2022-12-17T13:23:35.595Z,2.20
2022-12-17T13:26:19.973Z,1.40
2022-12-17T13:29:00.537Z,1.75
2022-12-17T13:31:29.877Z,1.79
2022-12-17T13:34:06.101Z,1.24
2022-12-17T13:36:39.711Z,1.11
2022-12-17T13:39:12.005Z,1.49
2022-12-17T13:41:40.093Z,1.28
2022-12-17T13:44:19.261Z,1.63
2022-12-17T13:46:48.231Z,1.37
2022-12-17T13:49:18.984Z,1.80
2022-12-17T13:51:48.489Z,1.44
2022-12-17T13:54:18.175Z,1.87
2022-12-17T13:56:46.505Z,1.94
2022-12-17T13:59:19.589Z,2.08
2022-12-17T14:01:49.175Z,1.89
2022-12-17T14:04:24.740Z,1.67
2022-12-17T14:06:54.873Z,1.21
2022-12-17T14:09:24.142Z,1.81
2022-12-17T14:12:10.688Z,1.71
2022-12-17T14:14:39.553Z,2.04
2022-12-17T14:17:07.573Z,1.70
2022-12-17T14:19:35.367Z,2.04
2022-12-17T14:22:04.421Z,2.25
2022-12-17T14:24:32.246Z,1.96
2022-12-17T14:27:01.245Z,2.00
2022-12-17T14:29:30.828Z,1.91
2022-12-17T14:32:00.511Z,1.72
2022-12-17T14:34:29.970Z,1.78
2022-12-17T14:36:58.837Z,1.56
2022-12-17T14:39:30.044Z,1.76
2022-12-17T14:42:16.747Z,1.43
2022-12-17T14:44:52.040Z,1.78
2022-12-17T14:47:22.132Z,1.94
2022-12-17T14:50:06.462Z,1.78
2022-12-17T14:52:40.602Z,1.87
2022-12-17T14:55:28.392Z,2.01
2022-12-17T14:58:08.631Z,1.64
2022-12-17T15:00:38.467Z,1.79
2022-12-17T15:03:06.828Z,1.87
2022-12-17T15:05:36.175Z,1.83
2022-12-17T15:08:05.561Z,2.00
2022-12-17T15:10:34.687Z,1.81
2022-12-17T15:13:02.577Z,1.96
2022-12-17T15:15:30.293Z,1.50
2022-12-17T15:17:57.952Z,1.42
2022-12-17T15:20:25.612Z,1.32
2022-12-17T15:22:53.260Z,1.15
2022-12-17T15:25:21.044Z,1.26
2022-12-17T15:27:50.108Z,1.27
2022-12-17T15:30:18.872Z,1.07
2022-12-17T15:32:47.087Z,1.35
2022-12-17T15:35:15.646Z,1.27
2022-12-17T15:37:43.298Z,0.83
2022-12-17T15:40:12.050Z,0.84
2022-12-17T15:42:53.711Z,1.07
2022-12-17T15:45:22.737Z,0.42
2022-12-17T15:47:50.433Z,0.81
2022-12-17T15:50:18.208Z,0.82
2022-12-17T15:52:45.879Z,0.91
2022-12-17T15:55:15.060Z,1.06
2022-12-17T15:57:42.922Z,1.54
2022-12-17T16:00:12.051Z,1.63
2022-12-17T16:02:41.327Z,1.63
2022-12-17T16:05:09.919Z,1.36
2022-12-17T16:07:38.155Z,1.53
2022-12-17T16:10:06.817Z,1.25
2022-12-17T16:12:34.570Z,1.20
2022-12-17T16:15:02.984Z,1.23
2022-12-17T16:17:30.661Z,1.34
2022-12-17T16:20:00.571Z,1.06
2022-12-17T16:22:28.555Z,1.12
2022-12-17T16:24:56.262Z,1.16
2022-12-17T16:27:24.391Z,1.17
2022-12-17T16:29:52.028Z,1.08
2022-12-17T16:32:19.695Z,0.59
2022-12-17T16:34:47.316Z,0.76
2022-12-17T16:37:16.335Z,1.13
2022-12-17T16:39:45.059Z,1.19
2022-12-17T16:42:12.811Z,0.89
2022-12-17T16:44:40.500Z,0.84
2022-12-17T16:47:08.218Z,0.36
2022-12-17T16:49:35.889Z,1.26
2022-12-17T16:52:03.885Z,1.09
2022-12-17T16:54:33.735Z,1.22
2022-12-17T16:57:03.063Z,0.92
2022-12-17T16:59:30.901Z,1.09
2022-12-17T17:01:59.571Z,1.18
2022-12-17T17:04:27.256Z,1.07
2022-12-17T17:06:57.084Z,1.42
2022-12-17T17:09:25.464Z,0.94
2022-12-17T17:11:55.850Z,0.94
2022-12-17T17:14:23.973Z,1.16
2022-12-17T17:16:51.851Z,1.16
2022-12-17T17:19:20.580Z,1.25
2022-12-17T17:21:52.593Z,0.76
2022-12-17T17:24:22.432Z,1.43
2022-12-17T17:26:51.351Z,0.95
2022-12-17T17:29:20.517Z,1.01
2022-12-17T17:34:35.925Z,1.31
2022-12-17T17:37:03.675Z,1.50
2022-12-17T17:39:33.210Z,1.27
2022-12-17T17:42:01.178Z,0.82
2022-12-17T17:44:30.223Z,1.20
2022-12-17T17:46:58.308Z,1.50
2022-12-17T17:49:26.052Z,1.12
2022-12-17T17:52:09.495Z,1.16
2022-12-17T17:54:38.210Z,0.72
2022-12-17T17:57:05.863Z,0.63
2022-12-17T17:59:34.904Z,0.80
2022-12-17T18:02:03.339Z,1.16
2022-12-17T18:04:32.000Z,0.78
2022-12-17T18:07:24.245Z,0.93
2022-12-17T18:09:47.574Z,1.21
2022-12-17T18:12:33.144Z,1.09
2022-12-17T18:15:18.571Z,1.06
2022-12-17T18:17:47.980Z,1.03
2022-12-17T18:20:15.869Z,0.59
2022-12-17T18:22:44.881Z,0.28
2022-12-17T18:25:12.763Z,0.56
2022-12-17T18:27:40.436Z,0.66
2022-12-17T18:30:10.719Z,-0.01
2022-12-17T18:32:38.379Z,0.68
2022-12-17T18:35:06.871Z,0.74
2022-12-17T18:37:34.654Z,0.55
2022-12-17T18:40:02.302Z,0.28
2022-12-17T18:43:02.000Z,0.53
2022-12-17T18:45:31.089Z,0.09
2022-12-17T18:47:58.783Z,0.59
2022-12-17T18:50:26.550Z,0.94
2022-12-17T18:52:54.214Z,0.57
2022-12-17T18:55:21.854Z,0.85
2022-12-17T18:57:49.500Z,0.30
2022-12-17T19:00:19.028Z,0.66
2022-12-17T19:02:48.233Z,0.41
2022-12-17T19:05:16.117Z,0.95
2022-12-17T19:07:43.764Z,0.92
2022-12-17T19:10:11.895Z,1.15
2022-12-17T19:12:39.562Z,1.15
2022-12-17T19:15:08.331Z,0.52
2022-12-17T19:17:36.016Z,0.45
2022-12-17T19:20:05.605Z,0.37
2022-12-17T19:22:33.297Z,0.20
2022-12-17T19:25:00.924Z,0.27
2022-12-17T19:27:28.840Z,0.37
2022-12-17T19:29:57.080Z,0.85
2022-12-17T19:32:24.782Z,0.76
2022-12-17T19:34:52.548Z,0.96
2022-12-17T19:37:21.610Z,0.39
2022-12-17T19:39:49.229Z,0.52
2022-12-17T19:42:25.354Z,0.16
2022-12-17T19:44:53.934Z,0.42
2022-12-17T19:47:21.971Z,0.11
2022-12-17T19:49:49.629Z,-0.38
2022-12-17T19:52:17.362Z,-0.02
2022-12-17T19:54:46.439Z,-0.10
2022-12-17T19:57:14.078Z,0.09
2022-12-17T19:59:41.727Z,-0.02
2022-12-17T20:02:10.403Z,0.01
2022-12-17T20:04:38.228Z,0.27
2022-12-17T20:07:05.865Z,-0.11
2022-12-17T20:09:33.488Z,0.00
2022-12-17T20:12:02.571Z,0.21
2022-12-17T20:14:31.536Z,-0.11
2022-12-17T20:17:01.242Z,-0.05
2022-12-17T20:19:30.942Z,-0.24
2022-12-17T20:22:01.252Z,0.32
2022-12-17T20:24:31.017Z,0.42
2022-12-17T20:26:59.783Z,-0.14
2022-12-17T20:29:28.969Z,-0.31
2022-12-17T20:31:56.952Z,-0.03
2022-12-17T20:34:25.471Z,-0.13
2022-12-17T20:36:53.476Z,-0.29
2022-12-17T20:39:26.544Z,-0.03
2022-12-17T20:41:55.912Z,-0.09
2022-12-17T20:44:23.627Z,-0.02
2022-12-17T20:46:52.702Z,0.02
2022-12-17T20:49:20.336Z,0.22
2022-12-17T20:51:48.058Z,0.41
2022-12-17T20:54:15.710Z,0.47
2022-12-17T20:56:43.366Z,0.24
2022-12-17T20:59:15.560Z,-0.08
2022-12-17T21:01:43.508Z,0.29
2022-12-17T21:04:13.331Z,0.34
2022-12-17T21:06:42.236Z,0.04
2022-12-17T21:09:10.334Z,-0.72
2022-12-17T21:11:39.084Z,-0.67
2022-12-17T21:14:08.383Z,-0.53
2022-12-17T21:16:37.154Z,-0.66
2022-12-17T21:19:06.271Z,-0.50
2022-12-17T21:21:37.607Z,-0.40
2022-12-17T21:24:05.958Z,-0.45
2022-12-17T21:26:34.700Z,-0.36
2022-12-17T21:29:03.639Z,-0.86
2022-12-17T21:31:33.555Z,-0.77
2022-12-17T21:34:03.152Z,-0.58
2022-12-17T21:36:32.477Z,-0.98
2022-12-17T21:39:01.900Z,-0.40
2022-12-17T21:41:38.272Z,-0.30
2022-12-17T21:44:08.273Z,-0.47
2022-12-17T21:46:36.311Z,-0.50
2022-12-17T21:49:05.249Z,-0.96
2022-12-17T21:51:33.410Z,-0.78
2022-12-17T21:54:08.588Z,-1.16
2022-12-17T21:56:37.673Z,-1.00
2022-12-17T21:59:05.466Z,-0.87
2022-12-17T22:01:34.882Z,-0.61
2022-12-17T22:04:04.142Z,-0.68
2022-12-17T22:06:41.918Z,-0.82
2022-12-17T22:09:27.908Z,-0.80
2022-12-17T22:12:15.725Z,-1.03
2022-12-17T22:14:43.567Z,-0.57
2022-12-17T22:17:11.277Z,-0.47
2022-12-17T22:19:39.136Z,-0.39
2022-12-17T22:22:06.767Z,-0.30
2022-12-17T22:24:36.724Z,-0.45
2022-12-17T22:27:09.412Z,-0.74
2022-12-17T22:29:55.031Z,-0.37
2022-12-17T22:32:40.426Z,-0.01
2022-12-17T22:36:18.513Z,-0.72
2022-12-17T22:39:43.960Z,-0.68
2022-12-17T22:44:30.355Z,-0.85
2022-12-17T22:44:40.882Z,-1.11
2022-12-17T22:46:20.495Z,-1.00
2022-12-17T22:48:48.451Z,-0.76
2022-12-17T22:51:25.091Z,-1.02
2022-12-17T22:54:02.049Z,-0.91
2022-12-17T22:57:12.217Z,-0.89
2022-12-17T22:59:20.765Z,-1.47
2022-12-17T23:01:48.523Z,-1.48
2022-12-17T23:04:17.694Z,-1.31
2022-12-17T23:06:46.665Z,-1.45
2022-12-17T23:09:14.625Z,-1.72
2022-12-17T23:11:43.717Z,-1.59
2022-12-17T23:14:11.477Z,-1.42
2022-12-17T23:16:39.305Z,-1.37
2022-12-17T23:19:07.820Z,-1.48
2022-12-17T23:21:35.793Z,-1.93
2022-12-17T23:24:03.751Z,-1.89
2022-12-17T23:26:33.560Z,-2.22
2022-12-17T23:29:05.825Z,-2.15
2022-12-17T23:31:35.332Z,-1.92
2022-12-17T23:34:03.396Z,-1.92
2022-12-17T23:36:31.081Z,-2.04
2022-12-17T23:38:59.285Z,-1.86
2022-12-17T23:41:29.331Z,-1.90
2022-12-17T23:43:57.947Z,-2.08
2022-12-17T23:46:29.004Z,-2.01
2022-12-17T23:48:56.883Z,-2.22
2022-12-17T23:51:25.213Z,-2.37
2022-12-17T23:53:53.029Z,-2.45
2022-12-17T23:56:23.158Z,-2.14
2022-12-17T23:58:53.844Z,-2.08
